sim
Sign-in with your pilot id or email,
or register
Callsign
Passwort

Schedule Details

Flight Number: OEO7468
Departure: Vienna International Airport (LOWW) at 04:00
Arrival: Fuerteventura Airport (GCFV) at 09:30

Weather Information
Getting current METAR information for LOWW 181950Z VRB02KT CAVOK 12/03 Q1029 NOSIG
Getting current METAR information for GCFV 182000Z 36016KT 9999 FEW045 18/11 Q1019

Schedule Frequency

Route Map